createdAt,value
2019-01-31T00:00:40.333Z,27.87
2019-01-31T00:03:37.733Z,28.60
2019-01-31T00:06:19.419Z,30.53
2019-01-31T00:09:09.253Z,29.77
2019-01-31T00:12:00.368Z,30.03
2019-01-31T00:14:48.661Z,28.53
2019-01-31T00:17:46.689Z,28.77
2019-01-31T00:20:34.300Z,30.73
2019-01-31T00:23:37.690Z,30.93
2019-01-31T00:26:23.742Z,30.60
2019-01-31T00:28:56.653Z,30.50
2019-01-31T00:31:38.804Z,31.03
2019-01-31T00:34:27.057Z,29.20
2019-01-31T00:37:07.141Z,30.07
2019-01-31T00:39:51.983Z,31.23
2019-01-31T00:42:27.879Z,29.63
2019-01-31T00:45:00.874Z,30.93
2019-01-31T00:47:35.071Z,30.43
2019-01-31T00:50:38.024Z,28.57
2019-01-31T00:53:29.523Z,29.43
2019-01-31T00:56:36.779Z,30.07
2019-01-31T00:59:41.973Z,29.53
2019-01-31T01:02:32.507Z,29.93
2019-01-31T01:05:22.391Z,30.30
2019-01-31T01:08:07.382Z,29.13
2019-01-31T01:10:46.312Z,29.90
2019-01-31T01:13:33.566Z,31.23
2019-01-31T01:16:23.005Z,29.47
2019-01-31T01:19:01.226Z,30.57
2019-01-31T01:21:58.737Z,28.87
2019-01-31T01:24:37.671Z,28.07
2019-01-31T01:27:23.471Z,28.13
2019-01-31T01:29:59.267Z,28.47
2019-01-31T01:32:38.509Z,27.50
2019-01-31T01:35:20.119Z,30.60
2019-01-31T01:38:14.453Z,29.47
2019-01-31T01:40:50.326Z,30.63
2019-01-31T01:43:29.195Z,31.47
2019-01-31T01:46:19.634Z,34.27
2019-01-31T01:48:55.404Z,29.40
2019-01-31T01:51:31.234Z,29.20
2019-01-31T01:54:07.024Z,28.37
2019-01-31T01:56:43.673Z,31.73
2019-01-31T01:59:29.528Z,31.67
2019-01-31T02:02:23.354Z,29.73
2019-01-31T02:05:05.554Z,31.27
2019-01-31T02:08:00.759Z,30.07
2019-01-31T02:11:00.532Z,31.87
2019-01-31T02:13:36.368Z,32.37
2019-01-31T02:16:46.582Z,31.73
2019-01-31T02:19:48.527Z,31.83
2019-01-31T02:22:36.712Z,31.57
2019-01-31T02:28:25.244Z,28.90
2019-01-31T02:31:03.991Z,30.90
2019-01-31T02:33:45.878Z,30.90
2019-01-31T02:36:40.668Z,31.40
2019-01-31T02:39:42.392Z,30.27
2019-01-31T02:45:33.466Z,33.30
2019-01-31T02:48:06.579Z,32.13
2019-01-31T02:50:45.421Z,33.37
2019-01-31T02:53:38.273Z,32.40
2019-01-31T02:56:18.267Z,33.63
2019-01-31T02:58:51.267Z,34.23
2019-01-31T03:01:24.342Z,34.10
2019-01-31T03:04:00.170Z,34.27
2019-01-31T03:06:34.265Z,34.53
2019-01-31T03:09:34.729Z,31.90
2019-01-31T03:12:16.884Z,31.33
2019-01-31T03:14:49.966Z,31.37
2019-01-31T03:17:45.107Z,33.83
2019-01-31T03:20:24.065Z,31.73
2019-01-31T03:23:08.888Z,33.83
2019-01-31T03:25:56.687Z,32.63
2019-01-31T03:28:57.170Z,34.07
2019-01-31T03:31:39.096Z,32.60
2019-01-31T03:34:36.096Z,33.10
2019-01-31T03:37:20.033Z,32.83
2019-01-31T03:40:11.365Z,33.17
2019-01-31T03:42:56.333Z,33.60
2019-01-31T03:45:35.164Z,34.63
2019-01-31T03:48:29.042Z,32.97
2019-01-31T03:51:14.290Z,33.47
2019-01-31T03:53:47.168Z,33.43
2019-01-31T03:56:28.864Z,33.43
2019-01-31T03:59:10.415Z,33.10
2019-01-31T04:01:52.855Z,33.03
2019-01-31T04:04:34.641Z,34.27
2019-01-31T04:07:05.622Z,33.00
2019-01-31T04:09:35.387Z,33.47
2019-01-31T04:12:05.364Z,34.47
2019-01-31T04:14:35.239Z,37.60
2019-01-31T04:17:06.204Z,38.07
2019-01-31T04:19:36.018Z,36.27
2019-01-31T04:22:05.974Z,39.57
2019-01-31T04:24:35.883Z,37.57
2019-01-31T04:27:06.638Z,35.07
2019-01-31T04:29:36.407Z,35.23
2019-01-31T04:32:06.289Z,33.73
2019-01-31T04:34:36.219Z,35.10
2019-01-31T04:37:07.269Z,32.63
2019-01-31T04:39:37.052Z,33.17
2019-01-31T04:42:06.877Z,33.07
2019-01-31T04:44:36.742Z,30.63
2019-01-31T04:47:07.611Z,32.60
2019-01-31T04:49:37.586Z,31.43
2019-01-31T04:52:07.442Z,27.63
2019-01-31T04:54:56.656Z,28.87
2019-01-31T04:57:26.724Z,31.37
2019-01-31T04:59:56.495Z,30.93
2019-01-31T05:02:27.307Z,27.60
2019-01-31T05:04:57.217Z,28.10
2019-01-31T05:07:28.011Z,26.90
2019-01-31T05:09:57.908Z,28.50
2019-01-31T05:12:27.885Z,23.93
2019-01-31T05:14:57.657Z,24.83
2019-01-31T05:17:28.521Z,26.77
2019-01-31T05:19:58.377Z,25.87
2019-01-31T05:22:28.249Z,25.67
2019-01-31T05:24:58.025Z,25.10
2019-01-31T05:27:28.921Z,23.20
2019-01-31T05:29:58.813Z,27.53
2019-01-31T05:32:28.678Z,31.33
2019-01-31T05:34:58.508Z,30.77
2019-01-31T05:37:29.504Z,28.70
2019-01-31T05:39:59.341Z,28.77
2019-01-31T05:42:29.186Z,28.50
2019-01-31T05:44:59.021Z,31.13
2019-01-31T05:47:29.910Z,29.07
2019-01-31T05:49:59.710Z,26.90
2019-01-31T05:52:29.574Z,32.43
2019-01-31T05:54:59.369Z,29.63
2019-01-31T05:57:29.312Z,28.47
2019-01-31T05:59:59.093Z,30.93
2019-01-31T06:02:29.941Z,32.33
2019-01-31T06:04:59.807Z,32.57
2019-01-31T06:07:30.832Z,31.07
2019-01-31T06:10:00.657Z,30.43
2019-01-31T06:12:41.321Z,31.63
2019-01-31T06:15:14.298Z,32.17
2019-01-31T06:17:45.246Z,33.80
2019-01-31T06:20:25.656Z,31.70
2019-01-31T06:22:55.632Z,33.47
2019-01-31T06:25:25.480Z,31.90
2019-01-31T06:27:55.368Z,31.10
2019-01-31T06:30:25.237Z,33.13
2019-01-31T06:33:05.975Z,32.13
2019-01-31T06:35:36.000Z,31.23
2019-01-31T06:38:05.955Z,38.30
2019-01-31T06:40:35.938Z,37.33
2019-01-31T06:43:05.848Z,40.83
2019-01-31T06:45:35.732Z,37.83
2019-01-31T06:48:05.736Z,40.17
2019-01-31T06:50:35.601Z,31.47
2019-01-31T06:53:05.478Z,28.47
2019-01-31T06:55:35.361Z,24.90
2019-01-31T06:58:05.329Z,27.63
2019-01-31T07:00:35.308Z,29.93
2019-01-31T07:03:06.140Z,34.63
2019-01-31T07:05:36.067Z,59.67
2019-01-31T07:08:05.935Z,35.97
2019-01-31T07:10:35.803Z,29.30
2019-01-31T07:13:05.673Z,28.40
2019-01-31T07:15:35.535Z,30.50
2019-01-31T07:18:05.430Z,27.77
2019-01-31T07:20:35.307Z,26.37
2019-01-31T07:23:05.085Z,24.50
2019-01-31T07:25:34.995Z,24.50
2019-01-31T07:28:21.469Z,25.63
2019-01-31T07:30:52.239Z,25.47
2019-01-31T07:33:22.012Z,27.90
2019-01-31T07:35:53.116Z,25.80
2019-01-31T07:38:35.004Z,28.30
2019-01-31T07:41:04.878Z,28.60
2019-01-31T07:43:34.723Z,23.17
2019-01-31T07:46:05.707Z,26.53
2019-01-31T07:48:35.664Z,31.10
2019-01-31T07:51:05.652Z,28.27
2019-01-31T07:53:54.770Z,25.53
2019-01-31T07:56:25.650Z,26.00
2019-01-31T07:58:55.448Z,27.50
2019-01-31T08:01:25.431Z,25.07
2019-01-31T08:04:02.461Z,29.17
2019-01-31T08:06:28.894Z,29.87
2019-01-31T08:08:58.797Z,29.00
2019-01-31T08:11:28.655Z,27.63
2019-01-31T08:13:58.449Z,32.63
2019-01-31T08:16:29.453Z,26.43
2019-01-31T08:18:59.258Z,22.40
2019-01-31T08:21:29.217Z,23.67
2019-01-31T08:23:59.094Z,23.80
2019-01-31T08:26:31.070Z,21.47
2019-01-31T08:29:00.826Z,20.93
2019-01-31T08:31:30.748Z,19.13
2019-01-31T08:34:00.615Z,17.53
2019-01-31T08:36:31.470Z,20.07
2019-01-31T08:39:01.328Z,19.33
2019-01-31T08:41:32.646Z,18.97
2019-01-31T08:44:02.616Z,19.03
2019-01-31T08:46:33.593Z,18.53
2019-01-31T08:49:03.487Z,19.90
2019-01-31T08:51:33.340Z,18.93
2019-01-31T08:54:03.202Z,19.47
2019-01-31T08:56:35.217Z,18.73
2019-01-31T08:59:05.080Z,18.37
2019-01-31T09:01:34.843Z,17.53
2019-01-31T09:04:05.705Z,16.97
2019-01-31T09:06:37.612Z,18.87
2019-01-31T09:09:09.864Z,19.33
2019-01-31T09:11:39.839Z,17.97
2019-01-31T09:14:09.801Z,18.40
2019-01-31T09:16:40.671Z,19.33
2019-01-31T09:19:10.637Z,18.87
2019-01-31T09:21:40.887Z,21.30
2019-01-31T09:24:28.787Z,19.47
2019-01-31T09:27:33.668Z,19.27
2019-01-31T09:30:27.746Z,17.47
2019-01-31T09:33:06.615Z,19.00
2019-01-31T09:35:48.424Z,19.67
2019-01-31T09:38:33.546Z,19.63
2019-01-31T09:41:09.332Z,15.57
2019-01-31T09:43:44.833Z,18.80
2019-01-31T09:46:21.722Z,17.10
2019-01-31T09:49:06.381Z,21.27
2019-01-31T09:51:42.149Z,17.83
2019-01-31T09:54:15.031Z,16.50
2019-01-31T09:56:55.989Z,19.60
2019-01-31T09:59:31.585Z,19.33
2019-01-31T10:02:30.380Z,18.50
2019-01-31T10:08:37.243Z,19.90
2019-01-31T10:11:18.991Z,16.90
2019-01-31T10:14:09.048Z,22.50
2019-01-31T10:16:49.932Z,20.40
2019-01-31T10:19:40.900Z,20.17
2019-01-31T10:22:26.032Z,20.60
2019-01-31T10:25:22.034Z,19.10
2019-01-31T10:28:03.706Z,21.13
2019-01-31T10:31:07.504Z,18.80
2019-01-31T10:33:43.090Z,20.50
2019-01-31T10:36:45.831Z,16.40
2019-01-31T10:39:18.716Z,21.77
2019-01-31T10:42:03.791Z,18.13
2019-01-31T10:44:39.300Z,24.43
2019-01-31T10:47:28.428Z,21.57
2019-01-31T10:50:16.427Z,22.93
2019-01-31T10:53:09.455Z,21.63
2019-01-31T10:55:49.406Z,22.13
2019-01-31T10:58:40.955Z,21.37
2019-01-31T11:01:38.026Z,22.90
2019-01-31T11:04:21.357Z,22.93
2019-01-31T11:07:29.893Z,23.93
2019-01-31T11:10:21.111Z,23.07
2019-01-31T11:13:12.400Z,21.40
2019-01-31T11:15:48.446Z,25.20
2019-01-31T11:18:33.260Z,22.97
2019-01-31T11:21:12.291Z,25.03
2019-01-31T11:23:48.162Z,22.73
2019-01-31T11:26:25.107Z,21.93
2019-01-31T11:29:26.657Z,21.17
2019-01-31T11:32:23.411Z,20.20
2019-01-31T11:35:05.549Z,23.70
2019-01-31T11:37:41.426Z,20.43
2019-01-31T11:40:38.466Z,23.73
2019-01-31T11:43:20.575Z,25.83
2019-01-31T11:46:17.574Z,24.00
2019-01-31T11:48:59.602Z,24.70
2019-01-31T11:51:38.398Z,25.50
2019-01-31T11:54:28.017Z,26.57
2019-01-31T11:57:34.384Z,24.73
2019-01-31T12:00:06.922Z,22.90
2019-01-31T12:02:37.193Z,21.20
2019-01-31T12:05:07.456Z,23.17
2019-01-31T12:07:41.168Z,27.97
2019-01-31T12:10:12.250Z,24.77
2019-01-31T12:12:43.905Z,27.30
2019-01-31T12:15:14.896Z,26.87
2019-01-31T12:17:45.734Z,26.50
2019-01-31T12:20:17.091Z,23.57
2019-01-31T12:22:47.407Z,25.57
2019-01-31T12:25:17.415Z,24.27
2019-01-31T12:27:49.416Z,25.27
2019-01-31T12:30:43.306Z,27.07
2019-01-31T12:33:13.199Z,24.50
2019-01-31T12:35:43.125Z,25.77
2019-01-31T12:38:13.058Z,25.80
2019-01-31T12:40:43.053Z,56.50
2019-01-31T12:43:13.114Z,31.37
2019-01-31T12:45:43.025Z,24.73
2019-01-31T12:48:12.955Z,26.10
2019-01-31T12:50:44.491Z,25.47
2019-01-31T12:53:14.322Z,25.77
2019-01-31T12:55:44.217Z,22.23
2019-01-31T12:58:14.068Z,25.67
2019-01-31T13:00:43.909Z,25.40
2019-01-31T13:03:13.776Z,27.03
2019-01-31T13:05:43.554Z,27.33
2019-01-31T13:08:13.442Z,25.40
2019-01-31T13:10:43.223Z,21.10
2019-01-31T13:13:13.093Z,26.97
2019-01-31T13:15:42.916Z,27.10
2019-01-31T13:18:12.795Z,23.40
2019-01-31T13:20:42.650Z,23.53
2019-01-31T13:23:12.511Z,22.63
2019-01-31T13:25:42.424Z,23.43
2019-01-31T13:28:12.388Z,25.03
2019-01-31T13:30:42.366Z,23.63
2019-01-31T13:33:12.346Z,25.30
2019-01-31T13:35:42.333Z,25.90
2019-01-31T13:38:12.308Z,22.80
2019-01-31T13:40:42.402Z,23.93
2019-01-31T13:43:12.255Z,25.97
2019-01-31T13:45:42.021Z,25.57
2019-01-31T13:48:12.009Z,27.57
2019-01-31T13:50:41.780Z,27.83
2019-01-31T13:53:11.645Z,26.37
2019-01-31T13:55:43.555Z,26.60
2019-01-31T13:58:13.461Z,27.10
2019-01-31T14:00:43.425Z,26.50
2019-01-31T14:03:13.390Z,24.07
2019-01-31T14:05:43.264Z,25.03
2019-01-31T14:08:14.186Z,26.63
2019-01-31T14:10:44.143Z,25.20
2019-01-31T14:13:14.136Z,26.93
2019-01-31T14:15:44.013Z,27.37
2019-01-31T14:18:14.021Z,31.93
2019-01-31T14:20:43.859Z,29.77
2019-01-31T14:23:13.641Z,31.00
2019-01-31T14:25:43.606Z,28.17
2019-01-31T14:28:13.494Z,29.07
2019-01-31T14:30:43.357Z,27.47
2019-01-31T14:33:14.897Z,29.63
2019-01-31T14:35:45.959Z,29.13
2019-01-31T14:38:15.834Z,27.33
2019-01-31T14:40:45.830Z,25.13
2019-01-31T14:43:28.295Z,26.60
2019-01-31T14:45:58.321Z,31.30
2019-01-31T14:48:28.177Z,29.40
2019-01-31T14:51:10.529Z,30.77
2019-01-31T14:53:40.385Z,30.33
2019-01-31T14:56:11.313Z,29.57
2019-01-31T14:58:41.169Z,28.33
2019-01-31T15:01:11.050Z,28.03
2019-01-31T15:03:40.896Z,29.70
2019-01-31T15:06:12.801Z,26.67
2019-01-31T15:08:43.638Z,26.63
2019-01-31T15:11:14.621Z,26.67
2019-01-31T15:13:44.631Z,26.40
2019-01-31T15:16:16.488Z,25.97
2019-01-31T15:18:46.416Z,28.47
2019-01-31T15:21:16.191Z,26.83
2019-01-31T15:23:46.176Z,22.77
2019-01-31T15:26:17.042Z,26.17
2019-01-31T15:28:46.922Z,27.23
2019-01-31T15:31:16.686Z,27.40
2019-01-31T15:33:46.558Z,25.97
2019-01-31T15:36:17.432Z,27.57
2019-01-31T15:38:47.308Z,28.20
2019-01-31T15:41:17.082Z,28.13
2019-01-31T15:43:46.914Z,29.17
2019-01-31T15:46:18.112Z,29.27
2019-01-31T15:48:48.331Z,31.20
2019-01-31T15:51:18.219Z,31.20
2019-01-31T15:53:48.083Z,28.30
2019-01-31T15:56:19.074Z,30.57
2019-01-31T15:58:49.018Z,28.27
2019-01-31T16:01:18.878Z,31.80
2019-01-31T16:03:48.770Z,29.77
2019-01-31T16:06:20.601Z,29.87
2019-01-31T16:08:51.392Z,30.47
2019-01-31T16:11:22.263Z,31.67
2019-01-31T16:13:52.180Z,31.50
2019-01-31T16:16:23.135Z,62.70
2019-01-31T16:18:54.158Z,45.63
2019-01-31T16:21:23.966Z,37.60
2019-01-31T16:23:53.820Z,33.13
2019-01-31T16:26:24.730Z,35.07
2019-01-31T16:28:54.606Z,33.67
2019-01-31T16:31:25.476Z,36.10
2019-01-31T16:33:55.353Z,34.93
2019-01-31T16:36:26.529Z,29.13
2019-01-31T16:38:56.393Z,32.27
2019-01-31T16:41:26.265Z,31.37
2019-01-31T16:43:56.158Z,36.47
2019-01-31T16:46:27.111Z,33.20
2019-01-31T16:48:57.055Z,34.93
2019-01-31T16:51:27.034Z,33.93
2019-01-31T16:53:57.021Z,33.60
2019-01-31T16:56:27.353Z,37.00
2019-01-31T16:58:57.531Z,35.33
2019-01-31T17:01:40.592Z,32.53
2019-01-31T17:04:10.627Z,33.13
2019-01-31T17:06:41.509Z,35.00
2019-01-31T17:09:13.682Z,35.50
2019-01-31T17:11:45.486Z,34.53
2019-01-31T17:14:16.365Z,36.40
2019-01-31T17:16:49.617Z,33.47
2019-01-31T17:19:19.565Z,34.23
2019-01-31T17:21:49.456Z,36.17
2019-01-31T17:24:19.461Z,43.77
2019-01-31T17:26:50.351Z,46.90
2019-01-31T17:29:20.339Z,45.23
2019-01-31T17:31:50.206Z,32.63
2019-01-31T17:34:20.207Z,32.83
2019-01-31T17:36:50.107Z,32.90
2019-01-31T17:39:20.138Z,33.23
2019-01-31T17:41:49.916Z,36.30
2019-01-31T17:44:19.877Z,36.43
2019-01-31T17:46:49.837Z,38.33
2019-01-31T17:49:19.854Z,37.17
2019-01-31T17:51:49.753Z,36.50
2019-01-31T17:54:19.627Z,36.87
2019-01-31T17:56:50.946Z,37.03
2019-01-31T17:59:20.875Z,32.47
2019-01-31T18:01:50.788Z,36.27
2019-01-31T18:04:20.675Z,34.73
2019-01-31T18:06:51.700Z,35.67
2019-01-31T18:09:22.554Z,36.70
2019-01-31T18:11:52.408Z,38.80
2019-01-31T18:14:22.345Z,38.60
2019-01-31T18:16:53.332Z,37.23
2019-01-31T18:19:23.373Z,39.37
2019-01-31T18:21:53.373Z,37.17
2019-01-31T18:24:23.336Z,40.13
2019-01-31T18:26:55.306Z,38.70
2019-01-31T18:29:25.292Z,42.37
2019-01-31T18:31:55.299Z,42.70
2019-01-31T18:34:25.277Z,41.67
2019-01-31T18:36:57.351Z,36.70
2019-01-31T18:39:27.357Z,36.67
2019-01-31T18:41:57.257Z,37.30
2019-01-31T18:44:27.210Z,33.90
2019-01-31T18:46:57.250Z,35.13
2019-01-31T18:49:27.185Z,39.93
2019-01-31T18:51:57.101Z,37.20
2019-01-31T18:54:27.066Z,35.03
2019-01-31T18:56:57.016Z,34.13
2019-01-31T18:59:26.907Z,35.50
2019-01-31T19:01:56.676Z,35.47
2019-01-31T19:04:26.572Z,36.60
2019-01-31T19:06:57.482Z,31.97
2019-01-31T19:09:28.445Z,38.33
2019-01-31T19:11:58.227Z,45.00
2019-01-31T19:14:28.151Z,45.37
2019-01-31T19:16:59.070Z,39.53
2019-01-31T19:19:29.051Z,38.70
2019-01-31T19:21:59.824Z,34.17
2019-01-31T19:24:29.709Z,38.27
2019-01-31T19:26:59.657Z,35.20
2019-01-31T19:29:32.081Z,34.07
2019-01-31T19:32:03.297Z,37.03
2019-01-31T19:34:33.802Z,51.27
2019-01-31T19:37:03.684Z,58.60
2019-01-31T19:39:35.738Z,41.83
2019-01-31T19:42:06.517Z,32.03
2019-01-31T19:44:36.385Z,29.97
2019-01-31T19:47:07.956Z,32.17
2019-01-31T19:49:38.130Z,32.13
2019-01-31T19:52:09.328Z,28.13
2019-01-31T19:54:46.973Z,31.83
2019-01-31T19:57:19.144Z,32.87
2019-01-31T19:59:49.107Z,27.83
2019-01-31T20:02:19.531Z,28.17
2019-01-31T20:04:50.645Z,28.37
2019-01-31T20:07:22.667Z,30.83
2019-01-31T20:09:53.467Z,28.50
2019-01-31T20:12:23.336Z,26.13
2019-01-31T20:14:53.349Z,48.20
2019-01-31T20:17:24.851Z,44.83
2019-01-31T20:19:54.921Z,75.60
2019-01-31T20:22:24.687Z,63.57
2019-01-31T20:24:54.606Z,41.67
2019-01-31T20:27:25.460Z,28.97
2019-01-31T20:29:55.344Z,28.73
2019-01-31T20:32:25.269Z,27.70
2019-01-31T20:34:56.560Z,27.87
2019-01-31T20:37:33.052Z,25.23
2019-01-31T20:40:08.998Z,25.83
2019-01-31T20:42:39.911Z,26.70
2019-01-31T20:45:20.578Z,29.00
2019-01-31T20:47:56.801Z,29.67
2019-01-31T20:50:35.688Z,28.13
2019-01-31T20:53:32.285Z,24.27
2019-01-31T20:56:13.688Z,27.17
2019-01-31T20:58:45.236Z,26.43
2019-01-31T21:01:15.224Z,28.10
2019-01-31T21:03:45.098Z,29.37
2019-01-31T21:06:17.008Z,29.47
2019-01-31T21:08:46.944Z,28.90
2019-01-31T21:11:17.826Z,28.90
2019-01-31T21:13:47.681Z,50.03
2019-01-31T21:16:32.460Z,55.43
2019-01-31T21:19:05.857Z,32.37
2019-01-31T21:21:35.919Z,31.87
2019-01-31T21:24:06.128Z,29.23
2019-01-31T21:26:42.888Z,27.57
2019-01-31T21:29:13.897Z,25.90
2019-01-31T21:31:44.517Z,30.60
2019-01-31T21:34:14.562Z,30.83
2019-01-31T21:36:44.560Z,28.70
2019-01-31T21:39:16.071Z,28.57
2019-01-31T21:42:08.665Z,31.00
2019-01-31T21:44:44.616Z,31.20
2019-01-31T21:47:18.827Z,28.67
2019-01-31T21:49:49.525Z,31.30
2019-01-31T21:52:20.065Z,31.70
2019-01-31T21:54:50.338Z,29.40
2019-01-31T21:57:20.905Z,30.37
2019-01-31T21:59:51.109Z,32.47
2019-01-31T22:02:20.961Z,31.60
2019-01-31T22:04:50.723Z,26.97
2019-01-31T22:07:22.037Z,31.43
2019-01-31T22:09:51.913Z,31.33
2019-01-31T22:12:24.314Z,32.37
2019-01-31T22:14:54.171Z,32.40
2019-01-31T22:17:24.130Z,30.50
2019-01-31T22:20:13.254Z,31.47
2019-01-31T22:22:43.193Z,28.23
2019-01-31T22:25:19.248Z,39.80
2019-01-31T22:27:49.296Z,40.03
2019-01-31T22:30:24.242Z,35.73
2019-01-31T22:33:06.311Z,32.40
2019-01-31T22:35:36.281Z,30.20
2019-01-31T22:38:06.441Z,27.00
2019-01-31T22:40:36.383Z,28.77
2019-01-31T22:43:06.267Z,28.93
2019-01-31T22:45:36.145Z,29.00
2019-01-31T22:48:06.235Z,28.23
2019-01-31T22:50:36.012Z,29.23
2019-01-31T22:53:05.898Z,28.50
2019-01-31T22:55:36.736Z,28.03
2019-01-31T22:58:06.522Z,29.00
2019-01-31T23:00:46.841Z,27.97
2019-01-31T23:03:17.144Z,28.93
2019-01-31T23:05:48.107Z,29.63
2019-01-31T23:08:17.893Z,28.33
2019-01-31T23:10:47.712Z,29.03
2019-01-31T23:13:18.515Z,28.57
2019-01-31T23:15:49.460Z,49.67
2019-01-31T23:18:19.453Z,56.47
2019-01-31T23:20:49.245Z,44.33
2019-01-31T23:23:19.246Z,31.30
2019-01-31T23:25:50.204Z,26.00
2019-01-31T23:28:20.174Z,25.07
2019-01-31T23:30:49.927Z,28.60
2019-01-31T23:33:19.764Z,25.50
2019-01-31T23:35:50.694Z,24.77
2019-01-31T23:38:20.656Z,27.23
2019-01-31T23:40:50.644Z,28.40
2019-01-31T23:43:20.507Z,29.03
2019-01-31T23:45:52.493Z,28.67
2019-01-31T23:48:22.466Z,27.87
2019-01-31T23:50:52.362Z,28.03
2019-01-31T23:53:22.289Z,28.50
2019-01-31T23:55:53.369Z,28.80
2019-01-31T23:58:23.226Z,29.53
